Time;durP1;ratioP1;P1;durP2;ratioP2;P2;SDS_P1;SDS_P2;PMS_P1;PMS_P2;Temp;Humidity;BMP_temperature;BMP_pressure;BME280_temperature;BME280_humidity;BME280_pressure;Samples;Min_cycle;Max_cycle;Signal;HPM_P1;HPM_P2
2023/07/07 00:01:10;;;;;;;5.10;3.70;;;;;;;13.09;71.02;100892.46;103558;280;39925;-73
2023/07/07 00:03:53;;;;;;;4.50;4.00;;;;;;;13.07;71.36;100901.68;103620;280;38512;-75
2023/07/07 00:06:29;;;;;;;6.40;3.80;;;;;;;13.03;71.52;100898.30;103553;280;38453;-74
2023/07/07 00:09:04;;;;;;;6.30;4.00;;;;;;;13.03;71.55;100902.73;103603;280;39719;-75
2023/07/07 00:11:39;;;;;;;5.80;3.70;;;;;;;13.03;71.84;100905.16;103578;281;38537;-72
2023/07/07 00:14:14;;;;;;;4.30;3.80;;;;;;;13.07;71.96;100903.96;103527;280;175073;-75
2023/07/07 00:16:49;;;;;;;5.20;3.50;;;;;;;13.09;72.07;100899.48;103549;281;38294;-74
2023/07/07 00:19:24;;;;;;;10.70;3.60;;;;;;;13.11;72.05;100902.21;103589;280;38301;-71
2023/07/07 00:21:59;;;;;;;5.20;3.20;;;;;;;13.12;72.32;100905.67;103564;280;38341;-73
2023/07/07 00:24:34;;;;;;;5.10;3.50;;;;;;;13.13;72.38;100911.59;103562;280;38345;-75
2023/07/07 00:27:12;;;;;;;5.40;3.30;;;;;;;13.14;72.42;100914.52;103519;281;38311;-75
2023/07/07 00:29:46;;;;;;;7.10;3.50;;;;;;;13.18;72.50;100918.75;103536;280;38422;-74
2023/07/07 00:32:22;;;;;;;6.30;3.80;;;;;;;13.24;72.69;100925.23;103535;280;38594;-72
2023/07/07 00:34:57;;;;;;;6.20;4.20;;;;;;;13.28;72.74;100926.77;103576;280;38491;-73
2023/07/07 00:37:31;;;;;;;8.40;4.60;;;;;;;13.32;72.88;100933.09;103567;280;39482;-75
2023/07/07 00:40:07;;;;;;;6.60;4.70;;;;;;;13.37;72.84;100929.23;103612;280;39635;-74
2023/07/07 00:42:42;;;;;;;8.80;4.00;;;;;;;13.40;72.71;100927.71;103633;280;38262;-72
2023/07/07 00:45:22;;;;;;;5.60;3.90;;;;;;;13.46;72.79;100928.00;103552;280;39389;-72
2023/07/07 00:48:00;;;;;;;6.60;4.90;;;;;;;13.52;72.90;100930.36;103585;281;38517;-72
2023/07/07 00:50:37;;;;;;;6.20;4.00;;;;;;;13.56;72.91;100930.72;103562;280;38432;-71
2023/07/07 00:53:13;;;;;;;9.20;4.30;;;;;;;13.61;72.94;100938.05;103607;281;38599;-74
2023/07/07 00:55:49;;;;;;;5.40;4.30;;;;;;;13.67;72.91;100936.74;103628;280;38339;-73
2023/07/07 00:58:24;;;;;;;5.80;4.10;;;;;;;13.74;72.69;100939.80;103645;280;38901;-75
2023/07/07 01:01:01;;;;;;;5.50;4.40;;;;;;;13.79;72.93;100944.50;103606;280;38403;-75
2023/07/07 01:03:39;;;;;;;6.10;3.80;;;;;;;13.81;73.01;100947.20;103593;280;38893;-75
2023/07/07 01:06:17;;;;;;;7.20;4.10;;;;;;;13.86;72.98;100947.02;103520;281;39927;-74
2023/07/07 01:08:52;;;;;;;5.90;3.80;;;;;;;13.89;72.97;100949.14;103566;281;38276;-74
2023/07/07 01:11:26;;;;;;;6.40;3.60;;;;;;;13.91;73.10;100952.92;103531;280;39444;-74
2023/07/07 01:14:01;;;;;;;4.60;3.60;;;;;;;13.94;73.03;100950.51;103556;280;38562;-72
2023/07/07 01:16:41;;;;;;;6.10;3.70;;;;;;;14.01;72.82;100942.34;103494;281;38921;-71
2023/07/07 01:19:32;;;;;;;4.60;3.80;;;;;;;14.04;72.77;100942.56;103585;280;39083;-72
2023/07/07 01:22:25;;;;;;;4.40;3.70;;;;;;;14.01;72.60;100936.04;103547;280;38290;-74
2023/07/07 01:25:07;;;;;;;4.80;3.90;;;;;;;13.94;72.40;100929.27;103508;280;38643;-73
2023/07/07 01:28:02;;;;;;;6.10;3.50;;;;;;;13.91;72.39;100926.45;103604;280;38476;-71
2023/07/07 01:30:47;;;;;;;4.40;3.30;;;;;;;13.85;72.18;100930.71;103551;280;39964;-73
2023/07/07 01:33:23;;;;;;;5.70;4.00;;;;;;;13.79;72.10;100931.17;103587;280;39130;-74
2023/07/07 01:35:58;;;;;;;6.20;3.70;;;;;;;13.74;72.30;100932.42;103548;281;38960;-74
2023/07/07 01:38:38;;;;;;;5.20;3.80;;;;;;;13.71;72.32;100931.34;103598;280;38520;-75
2023/07/07 01:41:26;;;;;;;7.50;3.90;;;;;;;13.65;72.30;100928.76;103588;269;38996;-74
2023/07/07 01:44:03;;;;;;;5.70;4.30;;;;;;;13.59;72.51;100931.30;103632;280;40122;-74
2023/07/07 01:46:41;;;;;;;5.20;4.20;;;;;;;13.54;72.71;100930.46;103619;280;38454;-74
2023/07/07 01:49:20;;;;;;;6.10;4.50;;;;;;;13.49;72.67;100930.31;103604;280;39053;-73
2023/07/07 01:51:59;;;;;;;6.90;4.50;;;;;;;13.43;72.76;100930.39;103601;280;38243;-75
2023/07/07 01:54:36;;;;;;;7.30;5.30;;;;;;;13.35;72.81;100933.70;103561;281;38312;-72
2023/07/07 01:57:26;;;;;;;5.70;4.20;;;;;;;13.30;72.91;100937.95;103524;280;38251;-72
2023/07/07 02:00:03;;;;;;;5.60;4.00;;;;;;;13.25;73.21;100946.88;103605;280;38276;-78
2023/07/07 02:02:38;;;;;;;6.20;4.10;;;;;;;13.20;73.36;100945.65;103450;280;174741;-72
2023/07/07 02:05:15;;;;;;;7.40;4.20;;;;;;;13.15;73.53;100944.77;103511;269;39497;-73
2023/07/07 02:07:49;;;;;;;6.50;3.90;;;;;;;13.10;73.76;100944.96;103471;280;175139;-74
2023/07/07 02:10:24;;;;;;;6.10;3.90;;;;;;;13.09;74.13;100943.61;103494;280;38226;-74
2023/07/07 02:12:59;;;;;;;4.80;3.90;;;;;;;13.11;74.51;100944.44;103448;280;39462;-71
2023/07/07 02:15:33;;;;;;;5.60;3.90;;;;;;;13.12;74.67;100946.28;103492;281;38239;-72
2023/07/07 02:18:08;;;;;;;16.10;5.00;;;;;;;13.14;74.92;100951.84;103461;280;175078;-70
2023/07/07 02:20:43;;;;;;;8.20;4.80;;;;;;;13.17;75.17;100951.04;103530;280;38622;-71
2023/07/07 02:23:17;;;;;;;5.50;4.60;;;;;;;13.20;75.62;100954.42;103444;281;38539;-71
2023/07/07 02:25:52;;;;;;;7.00;4.70;;;;;;;13.24;75.66;100961.10;103481;280;39347;-71
2023/07/07 02:28:26;;;;;;;6.50;4.90;;;;;;;13.29;75.64;100960.75;103654;280;38521;-73
2023/07/07 02:31:01;;;;;;;7.00;4.70;;;;;;;13.33;75.90;100967.39;103542;280;39377;-75
2023/07/07 02:33:36;;;;;;;6.20;4.60;;;;;;;13.38;75.90;100966.69;103561;280;39699;-74
2023/07/07 02:36:11;;;;;;;7.40;4.80;;;;;;;13.41;75.79;100967.61;103572;280;38289;-73
2023/07/07 02:38:45;;;;;;;6.00;4.60;;;;;;;13.45;75.99;100968.16;103589;280;38535;-69
2023/07/07 02:41:20;;;;;;;6.50;4.60;;;;;;;13.49;76.10;100971.85;103563;280;39451;-70
2023/07/07 02:43:55;;;;;;;4.80;4.40;;;;;;;13.52;76.20;100974.02;103586;280;39808;-74
2023/07/07 02:46:29;;;;;;;5.10;4.10;;;;;;;13.56;75.98;100976.67;103583;280;38350;-73
2023/07/07 02:49:04;;;;;;;7.70;4.60;;;;;;;13.58;75.88;100971.46;103567;280;38250;-72
2023/07/07 02:51:39;;;;;;;7.20;4.40;;;;;;;13.59;75.70;100971.07;103586;280;38299;-73
2023/07/07 02:54:14;;;;;;;5.10;4.10;;;;;;;13.59;75.75;100968.80;103488;280;38380;-72
2023/07/07 02:56:48;;;;;;;7.50;3.90;;;;;;;13.59;75.67;100968.27;103552;280;38425;-74
2023/07/07 02:59:24;;;;;;;5.00;4.10;;;;;;;13.60;75.64;100965.80;103557;280;38237;-73
2023/07/07 03:01:59;;;;;;;5.10;4.10;;;;;;;13.58;75.63;100967.80;103526;281;38705;-73
2023/07/07 03:04:34;;;;;;;6.80;5.10;;;;;;;13.55;75.54;100972.83;103578;280;38870;-72
2023/07/07 03:07:12;;;;;;;5.20;4.70;;;;;;;13.53;75.64;100975.73;103502;280;38506;-71
2023/07/07 03:09:47;;;;;;;7.30;4.70;;;;;;;13.51;75.63;100979.30;103543;280;38300;-75
2023/07/07 03:12:22;;;;;;;5.30;4.40;;;;;;;13.52;75.76;100984.37;103587;280;38965;-72
2023/07/07 03:14:59;;;;;;;6.60;5.10;;;;;;;13.52;75.84;100988.75;103559;280;38344;-74
2023/07/07 03:17:36;;;;;;;6.90;4.80;;;;;;;13.53;75.93;100988.19;103439;281;38435;-73
2023/07/07 03:20:13;;;;;;;7.50;4.90;;;;;;;13.56;76.26;100991.05;103547;281;38262;-71
2023/07/07 03:22:48;;;;;;;5.70;4.60;;;;;;;13.57;76.25;100993.08;103550;282;38721;-72
2023/07/07 03:25:25;;;;;;;11.00;5.10;;;;;;;13.59;76.30;100997.40;103517;281;38244;-72
2023/07/07 03:27:59;;;;;;;8.40;5.10;;;;;;;13.62;76.33;101004.96;103529;281;38255;-74
2023/07/07 03:30:34;;;;;;;7.40;5.20;;;;;;;13.69;76.43;101012.08;103496;281;38448;-73
2023/07/07 03:33:12;;;;;;;6.80;5.00;;;;;;;13.81;76.29;101007.91;103421;281;174719;-73
2023/07/07 03:35:50;;;;;;;6.90;4.80;;;;;;;13.92;76.23;101003.05;103528;282;39665;-72
2023/07/07 03:38:25;;;;;;;6.10;4.30;;;;;;;13.94;75.96;101008.05;103571;281;38703;-74
2023/07/07 03:41:02;;;;;;;7.20;4.70;;;;;;;13.94;76.11;101009.78;103432;281;172374;-72
2023/07/07 03:43:37;;;;;;;7.60;4.70;;;;;;;13.96;76.08;101009.38;103474;281;38254;-71
2023/07/07 03:46:13;;;;;;;6.80;5.10;;;;;;;13.96;76.16;101014.80;103520;281;38340;-72
2023/07/07 03:48:50;;;;;;;11.20;5.70;;;;;;;13.94;76.21;101016.62;103483;281;38387;-73
2023/07/07 03:51:28;;;;;;;6.90;5.20;;;;;;;13.97;76.41;101016.71;103480;281;40597;-73
2023/07/07 03:54:03;;;;;;;7.40;5.10;;;;;;;14.01;76.62;101020.91;103529;270;39569;-74
2023/07/07 03:56:38;;;;;;;7.70;4.70;;;;;;;14.07;76.81;101022.25;103519;281;39415;-74
2023/07/07 03:59:12;;;;;;;6.60;5.20;;;;;;;14.16;76.89;101026.96;103572;281;38218;-74
2023/07/07 04:01:47;;;;;;;9.30;5.60;;;;;;;14.29;77.17;101027.30;103522;281;38702;-74
2023/07/07 04:04:21;;;;;;;6.80;6.00;;;;;;;14.43;77.43;101032.48;103514;281;39526;-73
2023/07/07 04:06:58;;;;;;;7.80;6.10;;;;;;;14.58;77.15;101032.34;103550;281;38543;-74
2023/07/07 04:09:33;;;;;;;12.60;6.40;;;;;;;14.65;76.72;101028.70;103561;281;38252;-72
2023/07/07 04:12:12;;;;;;;8.70;5.70;;;;;;;14.70;76.55;101031.63;103526;281;38287;-73
2023/07/07 04:14:46;;;;;;;7.10;5.60;;;;;;;14.76;76.46;101030.84;103554;281;38734;-71
2023/07/07 04:17:21;;;;;;;6.70;6.00;;;;;;;14.84;76.54;101031.71;103583;281;38119;-72
2023/07/07 04:19:55;;;;;;;10.40;6.40;;;;;;;15.54;78.63;101026.70;103545;281;39304;-74
2023/07/07 04:22:30;;;;;;;10.10;5.90;;;;;;;16.49;77.69;101027.59;103597;281;40262;-73
2023/07/07 04:25:16;;;;;;;8.70;6.10;;;;;;;17.45;76.15;101024.90;103506;281;38277;-74
2023/07/07 04:27:51;;;;;;;9.00;6.10;;;;;;;18.20;71.93;101028.50;103529;281;39839;-74
2023/07/07 04:30:34;;;;;;;10.70;6.10;;;;;;;18.43;69.62;101030.33;103514;281;38461;-74
2023/07/07 04:33:09;;;;;;;9.20;6.20;;;;;;;18.37;68.24;101030.67;103426;281;174607;-73
2023/07/07 04:35:43;;;;;;;9.00;6.70;;;;;;;18.33;67.77;101028.24;103531;270;38516;-73
2023/07/07 04:38:19;;;;;;;11.20;6.10;;;;;;;18.33;67.56;101030.04;103580;281;38939;-72
2023/07/07 04:40:53;;;;;;;12.20;6.30;;;;;;;18.27;67.39;101034.13;103532;282;38247;-72
2023/07/07 04:43:28;;;;;;;17.90;7.70;;;;;;;18.23;67.66;101037.00;103446;283;39856;-74
2023/07/07 04:46:02;;;;;;;20.80;8.20;;;;;;;18.25;67.61;101038.64;103481;282;38721;-74
2023/07/07 04:48:37;;;;;;;18.60;8.30;;;;;;;18.30;67.74;101037.81;103563;282;38327;-73
2023/07/07 04:51:13;;;;;;;30.30;9.60;;;;;;;18.42;67.31;101042.20;103506;282;38484;-74
2023/07/07 04:53:47;;;;;;;33.60;10.50;;;;;;;18.59;66.96;101049.88;103529;282;38894;-71
2023/07/07 04:56:24;;;;;;;40.70;10.40;;;;;;;18.88;65.83;101052.89;103565;282;38043;-72
2023/07/07 04:58:58;;;;;;;32.60;10.20;;;;;;;19.15;65.31;101050.50;103573;282;39691;-72
2023/07/07 05:01:33;;;;;;;33.20;9.70;;;;;;;19.35;64.98;101054.70;103540;282;38230;-74
2023/07/07 05:04:08;;;;;;;47.50;11.00;;;;;;;19.87;64.91;101054.70;103570;282;38601;-75
2023/07/07 05:06:42;;;;;;;62.60;12.90;;;;;;;20.84;64.49;101053.64;103527;282;38849;-73
2023/07/07 05:09:16;;;;;;;64.90;13.80;;;;;;;21.89;62.65;101053.17;103556;282;38280;-74
2023/07/07 05:11:51;;;;;;;54.00;14.30;;;;;;;22.87;60.20;101054.56;103524;282;38299;-73
2023/07/07 05:14:26;;;;;;;45.80;13.90;;;;;;;23.81;57.13;101053.40;103539;282;39733;-73
2023/07/07 05:17:00;;;;;;;49.50;14.10;;;;;;;24.73;54.61;101046.00;103028;282;512338;-73
2023/07/07 05:19:35;;;;;;;35.00;13.30;;;;;;;25.58;52.09;101046.86;103436;272;38382;-71
2023/07/07 05:22:11;;;;;;;30.90;12.10;;;;;;;26.48;50.04;101045.09;103518;282;38314;-70
2023/07/07 05:24:46;;;;;;;26.70;12.70;;;;;;;27.28;48.24;101049.64;103512;282;38622;-72
2023/07/07 05:27:22;;;;;;;29.40;13.10;;;;;;;27.92;45.12;101046.86;103414;282;38355;-73
2023/07/07 05:29:57;;;;;;;31.40;14.10;;;;;;;28.43;42.50;101054.83;103515;282;38348;-72
2023/07/07 05:32:32;;;;;;;25.40;13.40;;;;;;;28.93;40.90;101054.50;103561;282;38360;-72
2023/07/07 05:35:09;;;;;;;30.90;13.00;;;;;;;29.53;38.83;101051.59;103527;270;38251;-72
2023/07/07 05:37:44;;;;;;;39.40;13.30;;;;;;;30.00;37.84;101049.91;103454;282;39564;-71
2023/07/07 05:40:23;;;;;;;37.90;12.30;;;;;;;30.37;36.04;101052.86;103486;275;39104;-74
2023/07/07 05:42:58;;;;;;;35.20;12.30;;;;;;;30.81;35.67;101057.48;103588;282;39842;-74
2023/07/07 05:45:33;;;;;;;25.80;10.50;;;;;;;31.23;34.58;101057.95;103576;282;38463;-74
2023/07/07 05:48:08;;;;;;;14.00;9.80;;;;;;;31.54;33.63;101059.34;103455;282;38229;-73
2023/07/07 05:50:45;;;;;;;16.50;10.80;;;;;;;31.76;32.91;101061.10;103542;282;38259;-75
2023/07/07 05:53:20;;;;;;;12.90;9.10;;;;;;;32.20;32.86;101058.98;103438;282;173635;-74
2023/07/07 05:55:54;;;;;;;14.50;8.80;;;;;;;32.42;31.56;101058.06;103503;282;38275;-74
2023/07/07 05:58:32;;;;;;;11.00;8.00;;;;;;;32.81;29.62;101058.29;103641;282;38262;-81
2023/07/07 06:01:09;;;;;;;11.40;8.90;;;;;;;32.95;28.73;101068.42;103639;282;39497;-80
2023/07/07 06:03:44;;;;;;;13.80;8.30;;;;;;;33.12;28.66;101071.73;103499;282;39415;-71
2023/07/07 06:06:21;;;;;;;11.80;8.10;;;;;;;33.22;27.60;101074.27;103469;282;38309;-71
2023/07/07 06:08:57;;;;;;;10.30;7.10;;;;;;;33.45;27.45;101078.39;103539;282;38243;-71
2023/07/07 06:11:33;;;;;;;10.00;7.50;;;;;;;33.67;26.78;101075.02;103511;282;39077;-71
2023/07/07 06:14:11;;;;;;;10.90;7.70;;;;;;;34.07;26.64;101075.31;103569;282;39712;-71
2023/07/07 06:16:45;;;;;;;11.70;7.30;;;;;;;34.30;26.37;101075.02;103504;282;38594;-71
2023/07/07 06:19:19;;;;;;;12.00;7.30;;;;;;;34.46;25.86;101072.86;103514;282;38536;-72
2023/07/07 06:21:54;;;;;;;13.10;7.40;;;;;;;34.75;25.79;101073.02;103495;282;38685;-71
2023/07/07 06:24:29;;;;;;;9.90;6.50;;;;;;;34.99;25.33;101073.76;103446;282;38637;-73
2023/07/07 06:27:04;;;;;;;9.70;6.00;;;;;;;35.13;24.72;101072.44;103381;282;38633;-73
2023/07/07 06:29:42;;;;;;;6.50;5.70;;;;;;;35.03;24.12;101073.23;103414;282;38329;-74
2023/07/07 06:32:16;;;;;;;9.30;5.90;;;;;;;35.10;24.04;101075.70;103431;282;39855;-72
2023/07/07 06:34:51;;;;;;;7.80;5.70;;;;;;;35.22;24.44;101079.73;103493;282;38361;-72
2023/07/07 06:37:25;;;;;;;6.70;4.80;;;;;;;35.33;23.72;101078.77;103438;282;39070;-72
2023/07/07 06:40:00;;;;;;;7.20;4.70;;;;;;;35.66;23.66;101079.02;103494;281;39619;-73
2023/07/07 06:42:34;;;;;;;5.10;4.50;;;;;;;35.86;22.91;101077.67;103567;281;38398;-71
2023/07/07 06:45:13;;;;;;;7.60;4.40;;;;;;;35.98;23.21;101076.79;103472;282;38563;-72
2023/07/07 06:47:49;;;;;;;9.40;4.70;;;;;;;36.06;22.86;101077.56;103457;282;39506;-73
2023/07/07 06:50:28;;;;;;;7.00;4.30;;;;;;;36.21;23.52;101078.78;103515;282;38244;-73
2023/07/07 06:53:05;;;;;;;5.50;3.80;;;;;;;36.64;23.44;101073.98;103498;281;38765;-72
2023/07/07 06:55:40;;;;;;;5.60;3.40;;;;;;;37.04;22.75;101074.08;103517;281;38187;-72
2023/07/07 06:58:14;;;;;;;5.20;3.40;;;;;;;37.30;21.29;101071.91;103558;281;38375;-73
2023/07/07 07:00:50;;;;;;;4.90;3.30;;;;;;;37.34;21.03;101074.48;103500;281;39455;-73
2023/07/07 07:03:24;;;;;;;6.40;4.10;;;;;;;37.32;20.58;101073.95;103521;282;38609;-72
2023/07/07 07:05:58;;;;;;;4.10;3.20;;;;;;;37.29;20.95;101072.13;103391;282;39624;-71
2023/07/07 07:08:37;;;;;;;10.70;9.20;;;;;;;37.43;20.76;101072.59;103515;281;38750;-73
2023/07/07 07:11:17;;;;;;;7.60;6.70;;;;;;;37.68;21.13;101070.09;103358;282;38270;-73
2023/07/07 07:13:51;;;;;;;5.10;2.60;;;;;;;37.82;20.20;101072.06;103544;281;38241;-72
2023/07/07 07:16:25;;;;;;;2.90;2.40;;;;;;;37.74;19.84;101072.14;103480;281;39433;-73
2023/07/07 07:19:00;;;;;;;3.60;2.50;;;;;;;37.75;19.61;101072.69;103509;281;38413;-71
2023/07/07 07:21:34;;;;;;;4.00;2.60;;;;;;;37.69;19.10;101080.30;103480;281;38255;-71
2023/07/07 07:24:13;;;;;;;5.00;3.00;;;;;;;37.68;19.35;101081.85;103422;283;39713;-73
2023/07/07 07:26:48;;;;;;;6.10;2.90;;;;;;;37.80;19.38;101087.38;103525;281;38273;-73
2023/07/07 07:29:24;;;;;;;4.10;2.90;;;;;;;37.77;19.63;101090.27;103541;281;38332;-71
2023/07/07 07:32:01;;;;;;;2.80;2.60;;;;;;;38.04;20.18;101085.11;103351;282;39836;-71
2023/07/07 07:34:36;;;;;;;4.40;2.30;;;;;;;38.33;19.39;101087.14;103480;281;38296;-72
2023/07/07 07:37:18;;;;;;;2.80;2.20;;;;;;;38.40;18.43;101089.18;103433;281;38403;-72
2023/07/07 07:39:53;;;;;;;3.50;2.60;;;;;;;38.35;18.28;101093.41;103512;281;39446;-72
2023/07/07 07:42:32;;;;;;;2.30;2.10;;;;;;;38.13;18.34;101095.17;103544;281;38276;-72
2023/07/07 07:45:09;;;;;;;3.00;2.10;;;;;;;38.26;19.69;101093.58;103497;281;39442;-72
2023/07/07 07:47:44;;;;;;;3.60;2.20;;;;;;;38.55;19.20;101092.44;103549;278;38279;-71
2023/07/07 07:50:19;;;;;;;3.10;2.20;;;;;;;38.87;18.59;101093.19;103440;282;38521;-71
2023/07/07 07:52:54;;;;;;;2.20;1.90;;;;;;;38.84;17.80;101095.60;103512;281;38297;-73
2023/07/07 07:55:31;;;;;;;3.10;2.00;;;;;;;38.44;17.63;101099.14;103454;281;38357;-73
2023/07/07 07:58:05;;;;;;;2.70;2.20;;;;;;;38.33;17.68;101097.43;103349;282;39730;-73
2023/07/07 08:00:43;;;;;;;4.40;1.90;;;;;;;38.49;18.09;101093.86;103448;282;38472;-73
2023/07/07 08:03:18;;;;;;;4.30;2.10;;;;;;;38.70;18.22;101092.71;103510;281;39480;-72
2023/07/07 08:05:55;;;;;;;4.10;2.00;;;;;;;39.10;18.57;101098.20;103524;281;38555;-72
2023/07/07 08:08:29;;;;;;;2.20;2.00;;;;;;;39.32;16.78;101098.18;103450;283;38382;-73
2023/07/07 08:11:06;;;;;;;2.30;1.90;;;;;;;39.39;17.62;101097.93;103491;281;38241;-72
2023/07/07 08:13:41;;;;;;;1.70;1.60;;;;;;;39.66;17.35;101099.93;103563;282;38529;-73
2023/07/07 08:16:16;;;;;;;2.10;1.80;;;;;;;39.90;17.51;101103.63;103469;281;38311;-74
2023/07/07 08:18:50;;;;;;;2.20;1.80;;;;;;;40.11;17.01;101101.64;103509;281;38533;-73
2023/07/07 08:21:24;;;;;;;2.50;1.80;;;;;;;40.35;16.90;101099.92;103530;281;38701;-74
2023/07/07 08:23:58;;;;;;;2.40;1.80;;;;;;;40.68;16.87;101100.52;103532;281;39627;-71
2023/07/07 08:26:32;;;;;;;2.50;1.90;;;;;;;40.81;15.93;101107.67;103529;281;39452;-71
2023/07/07 08:29:07;;;;;;;2.00;1.80;;;;;;;41.01;16.37;101099.95;103544;281;38772;-70
2023/07/07 08:31:42;;;;;;;2.50;1.70;;;;;;;40.93;15.41;101100.81;103467;281;39112;-70
2023/07/07 08:34:19;;;;;;;2.60;1.70;;;;;;;40.26;15.98;101103.77;103524;281;38538;-69
2023/07/07 08:36:59;;;;;;;3.30;2.10;;;;;;;39.31;16.47;101105.29;103495;281;38836;-70
2023/07/07 08:39:33;;;;;;;2.60;1.80;;;;;;;38.17;17.27;101107.89;103559;281;38420;-73
2023/07/07 08:42:26;;;;;;;3.10;1.70;;;;;;;37.73;18.31;101105.90;103526;281;38336;-73
2023/07/07 08:45:02;;;;;;;1.60;1.50;;;;;;;37.71;18.28;101107.33;103501;281;38292;-73
2023/07/07 08:48:02;;;;;;;2.70;1.90;;;;;;;37.42;18.74;101104.77;103303;283;38241;-73
2023/07/07 08:50:43;;;;;;;2.40;2.00;;;;;;;37.05;17.92;101107.73;103342;283;39699;-72
2023/07/07 08:53:33;;;;;;;2.30;1.80;;;;;;;36.27;18.34;101112.31;103410;283;39588;-70
2023/07/07 08:56:14;;;;;;;2.10;1.70;;;;;;;35.21;19.20;101109.09;103350;283;38273;-70
2023/07/07 08:59:08;;;;;;;2.30;1.70;;;;;;;34.32;19.75;101109.55;103486;283;38241;-73
2023/07/07 09:01:52;;;;;;;1.50;1.40;;;;;;;33.43;20.07;101121.26;103424;272;38389;-72
2023/07/07 09:04:38;;;;;;;4.40;2.00;;;;;;;32.64;21.17;101120.70;103453;276;39998;-72
2023/07/07 09:07:53;;;;;;;4.10;1.70;;;;;;;32.88;22.22;101112.90;103433;283;39001;-72
2023/07/07 09:10:52;;;;;;;3.80;1.40;;;;;;;33.92;21.82;101115.92;103312;283;38715;-70
2023/07/07 09:13:29;;;;;;;1.70;1.60;;;;;;;34.89;20.62;101111.59;103434;283;38265;-73
2023/07/07 09:16:23;;;;;;;5.20;1.80;;;;;;;35.54;20.39;101115.21;103384;283;39427;-73
2023/07/07 09:19:03;;;;;;;2.40;1.60;;;;;;;35.81;19.22;101124.30;103314;283;40006;-73
2023/07/07 09:21:42;;;;;;;1.80;1.60;;;;;;;35.37;18.40;101120.53;103417;283;39423;-73
2023/07/07 09:24:23;;;;;;;1.60;1.40;;;;;;;34.51;19.19;101119.05;103462;283;38299;-72
2023/07/07 09:27:01;;;;;;;1.60;1.50;;;;;;;33.77;19.93;101114.20;103391;283;38345;-71
2023/07/07 09:29:35;;;;;;;3.10;1.90;;;;;;;33.11;21.03;101119.03;103417;283;39617;-71
2023/07/07 09:32:14;;;;;;;1.80;1.50;;;;;;;32.91;21.32;101113.40;103378;283;38317;-71
2023/07/07 09:34:49;;;;;;;3.70;1.60;;;;;;;32.96;22.05;101112.03;103418;283;38285;-69
2023/07/07 09:37:31;;;;;;;2.10;1.50;;;;;;;32.81;22.26;101115.59;103413;283;38378;-72
2023/07/07 09:40:16;;;;;;;2.80;1.60;;;;;;;32.73;22.33;101117.25;103402;283;38849;-72
2023/07/07 09:43:00;;;;;;;1.80;1.30;;;;;;;32.66;21.35;101114.56;103472;283;38981;-73
2023/07/07 09:45:42;;;;;;;1.80;1.60;;;;;;;32.63;22.34;101113.51;103402;283;38431;-73
2023/07/07 09:48:24;;;;;;;1.90;1.10;;;;;;;32.90;22.58;101114.69;103484;283;39447;-73
2023/07/07 09:51:03;;;;;;;1.70;1.30;;;;;;;33.05;21.78;101109.79;103417;283;38256;-74
2023/07/07 09:53:38;;;;;;;2.30;1.60;;;;;;;33.27;21.76;101103.68;103373;284;38241;-72
2023/07/07 09:56:18;;;;;;;3.50;1.40;;;;;;;33.53;21.78;101102.13;103388;283;38706;-72
2023/07/07 09:58:57;;;;;;;3.50;1.70;;;;;;;33.72;21.99;101109.27;103477;283;38257;-72
2023/07/07 10:01:33;;;;;;;3.10;1.60;;;;;;;33.55;21.33;101113.49;103238;285;38273;-73
2023/07/07 10:04:11;;;;;;;1.60;1.30;;;;;;;32.97;21.68;101116.09;103422;283;39500;-72
2023/07/07 10:06:47;;;;;;;;;;;;;;;32.46;22.35;101118.02;103409;283;38452;-72
2023/07/07 10:09:23;;;;;;;2.30;1.60;;;;;;;31.94;22.56;101120.97;103431;283;39746;-74
2023/07/07 10:12:01;;;;;;;2.40;1.80;;;;;;;31.78;23.23;101117.38;103431;283;38227;-74
2023/07/07 10:14:35;;;;;;;1.90;1.30;;;;;;;32.02;23.76;101118.35;103465;283;38273;-70
2023/07/07 10:17:28;;;;;;;3.60;1.60;;;;;;;32.15;21.90;101120.97;103261;283;38569;-70
2023/07/07 10:20:03;;;;;;;3.90;1.50;;;;;;;31.86;21.79;101117.11;103404;272;38711;-74
2023/07/07 10:22:41;;;;;;;2.60;2.10;;;;;;;31.74;22.28;101120.50;103440;283;39386;-71
2023/07/07 10:25:19;;;;;;;1.90;1.50;;;;;;;31.83;22.51;101116.45;103378;283;38330;-71
2023/07/07 10:27:57;;;;;;;1.80;1.50;;;;;;;31.83;23.30;101114.77;103295;283;39106;-70
2023/07/07 10:30:34;;;;;;;2.10;1.30;;;;;;;31.73;23.34;101119.23;103452;283;38243;-70
2023/07/07 10:33:13;;;;;;;3.00;1.60;;;;;;;31.66;23.97;101122.59;103374;283;174200;-70
2023/07/07 10:35:48;;;;;;;3.00;1.40;;;;;;;31.56;23.79;101124.56;103401;283;38705;-70
2023/07/07 10:38:23;;;;;;;1.70;1.50;;;;;;;31.26;23.56;101122.02;103431;283;39554;-70
2023/07/07 10:40:58;;;;;;;2.40;1.60;;;;;;;30.91;23.78;101120.60;103403;283;38717;-73
2023/07/07 10:43:32;;;;;;;3.60;1.30;;;;;;;30.59;24.23;101121.27;103484;283;39442;-72
2023/07/07 10:46:10;;;;;;;4.00;1.60;;;;;;;30.36;24.43;101120.63;103432;283;39482;-72
2023/07/07 10:48:46;;;;;;;2.50;1.60;;;;;;;30.24;24.55;101122.48;103428;283;38256;-70
2023/07/07 10:51:25;;;;;;;4.60;1.60;;;;;;;30.38;24.73;101119.70;103455;283;38836;-72
2023/07/07 10:54:03;;;;;;;2.70;1.70;;;;;;;30.65;23.95;101118.52;103447;283;38368;-73
2023/07/07 10:56:40;;;;;;;1.80;1.30;;;;;;;30.66;22.79;101113.33;103453;283;38607;-72
2023/07/07 10:59:49;;;;;;;1.70;1.30;;;;;;;30.54;22.66;101113.02;103439;283;38310;-73
2023/07/07 11:03:00;;;;;;;2.80;1.30;;;;;;;30.66;23.01;101103.26;103288;283;173947;-73
2023/07/07 11:05:44;;;;;;;3.00;1.60;;;;;;;30.56;23.00;101108.00;103350;272;38316;-75
2023/07/07 11:08:29;;;;;;;2.90;1.30;;;;;;;30.37;23.72;101113.84;103475;283;38404;-73
2023/07/07 11:11:22;;;;;;;3.00;1.60;;;;;;;30.10;23.57;101112.14;103416;283;38346;-71
2023/07/07 11:14:21;;;;;;;1.90;1.70;;;;;;;30.01;23.95;101116.53;103459;276;38233;-73
2023/07/07 11:17:08;;;;;;;3.10;1.60;;;;;;;30.14;23.69;101103.98;103393;283;38296;-73
2023/07/07 11:19:57;;;;;;;2.50;1.50;;;;;;;30.22;23.53;101100.59;103403;283;38309;-71
2023/07/07 11:22:55;;;;;;;2.90;1.30;;;;;;;30.20;23.26;101097.39;103420;283;38484;-71
2023/07/07 11:25:33;;;;;;;1.60;1.30;;;;;;;30.10;23.38;101093.40;103441;283;39465;-71
2023/07/07 11:28:17;;;;;;;2.00;1.30;;;;;;;30.21;22.98;101090.14;103472;283;38920;-71
2023/07/07 11:30:59;;;;;;;3.30;1.50;;;;;;;30.19;23.10;101093.49;103420;283;39426;-71
2023/07/07 11:33:41;;;;;;;3.40;1.50;;;;;;;30.25;23.69;101088.73;103343;283;38364;-72
2023/07/07 11:36:48;;;;;;;1.70;1.40;;;;;;;30.44;23.55;101087.89;103403;283;38482;-73
2023/07/07 11:39:38;;;;;;;4.20;1.30;;;;;;;30.42;22.65;101094.23;103418;283;39180;-72
2023/07/07 11:42:27;;;;;;;2.10;1.60;;;;;;;30.32;21.88;101089.52;103394;283;38275;-72
2023/07/07 11:45:11;;;;;;;2.40;1.20;;;;;;;30.24;22.42;101086.45;103396;283;38453;-73
2023/07/07 11:48:00;;;;;;;4.70;1.30;;;;;;;30.38;23.47;101092.07;103474;283;39400;-72
2023/07/07 11:50:48;;;;;;;2.20;1.30;;;;;;;30.51;23.16;101083.42;103434;283;39984;-72
2023/07/07 11:53:46;;;;;;;3.00;1.30;;;;;;;30.60;23.52;101084.25;102835;283;889375;-71
2023/07/07 11:56:35;;;;;;;2.70;1.40;;;;;;;30.81;23.43;101081.56;103248;285;38976;-71
2023/07/07 11:59:21;;;;;;;2.00;1.30;;;;;;;30.94;23.12;101077.58;103485;283;38761;-73
2023/07/07 12:01:57;;;;;;;2.30;1.50;;;;;;;30.93;23.08;101081.59;103427;283;38915;-73
2023/07/07 12:04:34;;;;;;;4.30;1.30;;;;;;;30.94;23.19;101074.84;103487;283;39408;-72
2023/07/07 12:07:13;;;;;;;2.30;1.10;;;;;;;30.87;23.10;101077.64;103479;283;38712;-73
2023/07/07 12:09:58;;;;;;;1.80;1.20;;;;;;;30.79;22.51;101088.65;103416;283;39436;-73
2023/07/07 12:12:38;;;;;;;2.70;1.50;;;;;;;30.55;22.17;101088.91;103497;272;38255;-73
2023/07/07 12:15:18;;;;;;;2.00;1.20;;;;;;;30.42;22.44;101085.39;103440;283;38510;-73